deformed-offering

Current conditions - KSJC (San Jose International)


Coded METAR: 2017/01/23 09:53 KSJC 230953Z AUTO 09004KT 10SM SCT038 BKN047 08/06 A2976 RMK AO2 RAB0857E43 SLP077 P0001 T00780056

Weather Report

Report issued: Mon 23rd Jan at 01:53 PST

Wind: light breeze from the East (090 degrees) at 4 knots (5 mph, 7 kph, Force 2)
Visibility: 10 statute miles
Cloud: scattered at 3800 feet
Cloud: broken at 4700 feet
Temperature: 46F / 8C
Dewpoint: 43F / 6C
Humidity: 87%
Pressure: 29.76 inches of mercury

Current conditions - KNUQ (Moffett NAS)


Coded METAR: 2017/01/23 09:56 KNUQ 230956Z 19003KT 10SM BKN034 BKN046 08/06 A2977 RMK AO2 RAE20 SLP082 P0001 T00780056

Weather Report

Report issued: Mon 23rd Jan at 01:56 PST

Wind: light air from the South (190 degrees) at 3 knots (3 mph, 6 kph, Force 1)
Visibility: 10 statute miles
Cloud: broken at 3400 feet
Cloud: broken at 4600 feet
Temperature: 46F / 8C
Dewpoint: 43F / 6C
Humidity: 87%
Pressure: 29.77 inches of mercury

Current conditions - KRHV (Reid-Hillview Airport - San Jose)


Coded METAR: 2017/01/23 05:50 KRHV 230550Z 13006KT 10SM FEW020 BKN035 08/07 A2974 RMK LAST

Weather Report

Report issued: Mon 23rd Jan at 21:50 PST

Wind: light breeze from the Southeast (130 degrees) at 6 knots (7 mph, 11 kph, Force 2)
Visibility: 10 statute miles
Cloud: a few clouds at 2000 feet
Cloud: broken at 3500 feet
Temperature: 46F / 8C
Dewpoint: 45F / 7C
Humidity: 93%
Pressure: 29.74 inches of mercury

Current conditions - KPAO (Palo Alto Airport)


Coded METAR: 2017/01/23 04:47 KPAO 230447Z 18008KT 10SM SCT060 OVC110 09/07 A2970 RMK LAST

Weather Report

Report issued: Mon 23rd Jan at 20:47 PST

Wind: gentle breeze from the South (180 degrees) at 8 knots (9 mph, 15 kph, Force 3)
Visibility: 10 statute miles
Cloud: scattered at 6000 feet
Cloud: overcast at 11000 feet
Temperature: 48F / 9C
Dewpoint: 45F / 7C
Humidity: 87%
Pressure: 29.70 inches of mercury

 

deformed-offering